Time;durP1;ratioP1;P1;durP2;ratioP2;P2;SDS_P1;SDS_P2;PMS_P1;PMS_P2;Temp;Humidity;BMP_temperature;BMP_pressure;BME280_temperature;BME280_humidity;BME280_pressure;Samples;Min_cycle;Max_cycle;Signal;HPM_P1;HPM_P2
2023/07/21 00:01:36;;;;;;;2.85;1.20;;;;;;;;;;4917340;29;20059;-84
2023/07/21 00:04:09;;;;;;;2.78;1.17;;;;;;;;;;4915010;29;20052;-83
2023/07/21 00:06:37;;;;;;;2.25;1.35;;;;;;;;;;4916546;29;20059;-83
2023/07/21 00:09:10;;;;;;;3.40;1.25;;;;;;;;;;4895087;29;20064;-83
2023/07/21 00:11:44;;;;;;;3.42;1.40;;;;;;;;;;4900761;29;20058;-83
2023/07/21 00:14:17;;;;;;;3.42;1.40;;;;;;;;;;4914734;29;20052;-84
2023/07/21 00:16:53;;;;;;;2.20;1.20;;;;;;;;;;4915914;29;20048;-82
2023/07/21 00:19:26;;;;;;;4.25;1.45;;;;;;;;;;4916684;29;20063;-81
2023/07/21 00:21:54;;;;;;;;;;;;;;;;;;4913199;29;20056;-82
2023/07/21 00:24:24;;;;;;;;;;;;;;;;;;4914144;29;19934;-82
2023/07/21 00:26:53;;;;;;;;;;;;;;;;;;4916190;29;19934;-82
2023/07/21 00:29:20;;;;;;;;;;;;;;;;;;4915507;29;19930;-81
2023/07/21 00:31:53;;;;;;;;;;;;;;;;;;4915679;29;20573;-82
2023/07/21 00:34:25;;;;;;;;;;;;;;;;;;4907013;29;19923;-82
2023/07/21 00:36:53;;;;;;;;;;;;;;;;;;4915790;29;19990;-81
2023/07/21 00:39:21;;;;;;;;;;;;;;;;;;4915307;29;19923;-82
2023/07/21 00:41:48;;;;;;;;;;;;;;;;;;4906064;29;19951;-82
2023/07/21 00:44:21;;;;;;;;;;;;;;;;;;4917173;29;19930;-82
2023/07/21 00:46:49;;;;;;;;;;;;;;;;;;4916146;29;20379;-81
2023/07/21 00:49:16;;;;;;;;;;;;;;;;;;4911272;29;20276;-82
2023/07/21 00:51:49;;;;;;;;;;;;;;;;;;4916109;29;20539;-83
2023/07/21 00:54:17;;;;;;;;;;;;;;;;;;4914011;29;19934;-82
2023/07/21 00:56:45;;;;;;;;;;;;;;;;;;4913830;29;19926;-81
2023/07/21 00:59:13;;;;;;;;;;;;;;;;;;4914699;29;20361;-82
2023/07/21 01:01:40;;;;;;;;;;;;;;;;;;4913822;29;19934;-83
2023/07/21 01:04:13;;;;;;;;;;;;;;;;;;4913251;29;19934;-82
2023/07/21 01:06:41;;;;;;;;;;;;;;;;;;4914807;29;19927;-81
2023/07/21 01:09:09;;;;;;;;;;;;;;;;;;4906796;29;19923;-81
2023/07/21 01:11:41;;;;;;;;;;;;;;;;;;4899032;29;19935;-82
2023/07/21 01:14:09;;;;;;;;;;;;;;;;;;4916219;29;20287;-82
2023/07/21 01:16:37;;;;;;;;;;;;;;;;;;4915770;29;19927;-81
2023/07/21 01:19:09;;;;;;;;;;;;;;;;;;4916057;29;19933;-82
2023/07/21 01:21:37;;;;;;;;;;;;;;;;;;4913724;29;20319;-82
2023/07/21 01:24:05;;;;;;;;;;;;;;;;;;4914911;29;19927;-82
2023/07/21 01:26:35;;;;;;;;;;;;;;;;;;4915681;29;19946;-82
2023/07/21 01:29:03;;;;;;;;;;;;;;;;;;4916160;29;19923;-81
2023/07/21 01:31:30;;;;;;;;;;;;;;;;;;4898203;29;20104;-82
2023/07/21 01:34:03;;;;;;;;;;;;;;;;;;4915816;29;19939;-81
2023/07/21 01:36:36;;;;;;;;;;;;;;;;;;4913142;29;19931;-82
2023/07/21 01:39:04;;;;;;;;;;;;;;;;;;4892677;29;19927;-82
2023/07/21 01:41:37;;;;;;;;;;;;;;;;;;4914347;29;19926;-82
2023/07/21 01:44:09;;;;;;;;;;;;;;;;;;4914254;29;19926;-81
2023/07/21 01:46:37;;;;;;;;;;;;;;;;;;4913723;29;20437;-80
2023/07/21 01:49:09;;;;;;;;;;;;;;;;;;4898535;29;19930;-82
2023/07/21 01:51:42;;;;;;;;;;;;;;;;;;4897829;29;19927;-81
2023/07/21 01:54:10;;;;;;;;;;;;;;;;;;4916065;29;19946;-82
2023/07/21 01:56:43;;;;;;;;;;;;;;;;;;4883962;29;19930;-82
2023/07/21 01:59:10;;;;;;;;;;;;;;;;;;4913770;29;19946;-82
2023/07/21 02:01:38;;;;;;;;;;;;;;;;;;4913903;29;19927;-82
2023/07/21 02:04:11;;;;;;;;;;;;;;;;;;4914773;29;19927;-81
2023/07/21 02:06:38;;;;;;;;;;;;;;;;;;4913117;29;19923;-81
2023/07/21 02:09:08;;;;;;;;;;;;;;;;;;4913086;29;19923;-82
2023/07/21 02:11:35;;;;;;;;;;;;;;;;;;4914235;29;19923;-81
2023/07/21 02:14:10;;;;;;;;;;;;;;;;;;4907254;29;19958;-82
2023/07/21 02:16:39;;;;;;;;;;;;;;;;;;4913454;29;19938;-82
2023/07/21 02:19:07;;;;;;;;;;;;;;;;;;4899454;29;19950;-82
2023/07/21 02:21:35;;;;;;;;;;;;;;;;;;4913732;29;19927;-81
2023/07/21 02:24:07;;;;;;;;;;;;;;;;;;4913963;29;19933;-81
2023/07/21 02:26:35;;;;;;;;;;;;;;;;;;4891995;29;20288;-81
2023/07/21 02:29:03;;;;;;;;;;;;;;;;;;4911468;29;19927;-81
2023/07/21 02:31:30;;;;;;;;;;;;;;;;;;4886682;29;19938;-82
2023/07/21 02:33:58;;;;;;;;;;;;;;;;;;4912081;29;20368;-82
2023/07/21 02:36:25;;;;;;;;;;;;;;;;;;4902474;29;19927;-80
2023/07/21 02:38:53;;;;;;;;;;;;;;;;;;4913723;29;20399;-82
2023/07/21 02:41:26;;;;;;;;;;;;;;;;;;4913679;29;20589;-82
2023/07/21 02:43:53;;;;;;;;;;;;;;;;;;4913515;29;19923;-81
2023/07/21 02:46:21;;;;;;;;;;;;;;;;;;4913122;29;19923;-82
2023/07/21 02:48:48;;;;;;;;;;;;;;;;;;4912016;29;20387;-82
2023/07/21 02:51:21;;;;;;;;;;;;;;;;;;4914085;29;20352;-82
2023/07/21 02:53:49;;;;;;;;;;;;;;;;;;4915209;29;19929;-82
2023/07/21 02:56:22;;;;;;;;;;;;;;;;;;4916429;29;19930;-81
2023/07/21 02:59:12;;;;;;;;;;;;;;;;;;4916242;29;19934;-82
2023/07/21 03:01:54;;;;;;;;;;;;;;;;;;4915815;29;20364;-82
2023/07/21 03:04:36;;;;;;;;;;;;;;;;;;4916156;29;20387;-81
2023/07/21 03:07:11;;;;;;;;;;;;;;;;;;4907180;29;20805;-82
2023/07/21 03:09:48;;;;;;;;;;;;;;;;;;4911383;29;19927;-86
2023/07/21 03:12:24;;;;;;;;;;;;;;;;;;4901309;29;19930;-79
2023/07/21 03:15:05;;;;;;;;;;;;;;;;;;4915916;29;19927;-77
2023/07/21 03:17:57;;;;;;;;;;;;;;;;;;4925115;29;19933;-82
2023/07/21 03:20:26;;;;;;;;;;;;;;;;;;4915951;29;20404;-81
2023/07/21 03:22:53;;;;;;;;;;;;;;;;;;4904454;29;19927;-81
2023/07/21 03:25:21;;;;;;;;;;;;;;;;;;4914874;29;19931;-80
2023/07/21 03:27:54;;;;;;;;;;;;;;;;;;4898318;29;20352;-81
2023/07/21 03:30:22;;;;;;;;;;;;;;;;;;4916351;29;19934;-81
2023/07/21 03:33:02;;;;;;;;;;;;;;;;;;4916949;29;19923;-82
2023/07/21 03:35:32;;;;;;;;;;;;;;;;;;4913415;29;20390;-82
2023/07/21 03:38:00;;;;;;;;;;;;;;;;;;4906590;29;19930;-82
2023/07/21 03:40:32;;;;;;;;;;;;;;;;;;4909502;29;19930;-82
2023/07/21 03:43:00;;;;;;;;;;;;;;;;;;4907408;29;19926;-82
2023/07/21 03:45:28;;;;;;;;;;;;;;;;;;4916263;29;19934;-81
2023/07/21 03:47:57;;;;;;;;;;;;;;;;;;4899037;29;19923;-82
2023/07/21 03:50:32;;;;;;;;;;;;;;;;;;4908316;29;20032;-81
2023/07/21 03:53:05;;;;;;;;;;;;;;;;;;4910237;29;19923;-82
2023/07/21 03:55:33;;;;;;;;;;;;;;;;;;4915133;29;20288;-82
2023/07/21 03:58:00;;;;;;;;;;;;;;;;;;4917269;29;19923;-82
2023/07/21 04:00:29;;;;;;;;;;;;;;;;;;4916161;29;19943;-82
2023/07/21 04:02:56;;;;;;;;;;;;;;;;;;4914071;29;19923;-82
2023/07/21 04:05:24;;;;;;;;;;;;;;;;;;4915686;29;20295;-82
2023/07/21 04:07:51;;;;;;;;;;;;;;;;;;4914421;29;19931;-82
2023/07/21 04:10:19;;;;;;;;;;;;;;;;;;4909228;29;19923;-81
2023/07/21 04:12:46;;;;;;;;;;;;;;;;;;4910007;29;19931;-82
2023/07/21 04:15:14;;;;;;;;;;;;;;;;;;4914368;29;19934;-81
2023/07/21 04:17:41;;;;;;;;;;;;;;;;;;4916607;29;19927;-81
2023/07/21 04:20:14;;;;;;;;;;;;;;;;;;4905347;29;19926;-82
2023/07/21 04:22:46;;;;;;;;;;;;;;;;;;4898976;29;19923;-82
2023/07/21 04:25:17;;;;;;;;;;;;;;;;;;4914301;29;20377;-82
2023/07/21 04:27:45;;;;;;;;;;;;;;;;;;4893332;29;19923;-82
2023/07/21 04:30:13;;;;;;;;;;;;;;;;;;4915707;29;19923;-83
2023/07/21 04:32:41;;;;;;;;;;;;;;;;;;4898529;29;19953;-81
2023/07/21 04:35:16;;;;;;;;;;;;;;;;;;4912475;29;20387;-81
2023/07/21 04:37:45;;;;;;;;;;;;;;;;;;4914559;29;19923;-82
2023/07/21 04:40:20;;;;;;;;;;;;;;;;;;4916343;29;20722;-83
2023/07/21 04:42:53;;;;;;;;;;;;;;;;;;4914769;29;19926;-82
2023/07/21 04:45:20;;;;;;;;;;;;;;;;;;4917622;29;19923;-82
2023/07/21 04:48:06;;;;;;;;;;;;;;;;;;4901971;29;20289;-83
2023/07/21 04:50:42;;;;;;;;;;;;;;;;;;4913890;29;20485;-82
2023/07/21 04:53:15;;;;;;;;;;;;;;;;;;4910601;29;20288;-82
2023/07/21 04:55:42;;;;;;;;;;;;;;;;;;4906773;29;19927;-82
2023/07/21 04:58:15;;;;;;;;;;;;;;;;;;4910382;29;19929;-81
2023/07/21 05:00:43;;;;;;;;;;;;;;;;;;4894566;29;19927;-82
2023/07/21 05:03:10;;;;;;;;;;;;;;;;;;4909588;29;19923;-82
2023/07/21 05:05:38;;;;;;;;;;;;;;;;;;4913936;29;19931;-82
2023/07/21 05:08:11;;;;;;;;;;;;;;;;;;4914175;29;19930;-82
2023/07/21 05:10:43;;;;;;;;;;;;;;;;;;4896279;29;20296;-82
2023/07/21 05:13:18;;;;;;;;;;;;;;;;;;4898614;29;19931;-82
2023/07/21 05:16:11;;;;;;;;;;;;;;;;;;4913342;29;19930;-83
2023/07/21 05:18:48;;;;;;;;;;;;;;;;;;4894468;29;19930;-83
2023/07/21 05:21:37;;;;;;;;;;;;;;;;;;4914093;29;19933;-82
2023/07/21 05:24:31;;;;;;;;;;;;;;;;;;4914236;29;19923;-82
2023/07/21 05:27:05;;;;;;;;;;;;;;;;;;4895309;29;19931;-82
2023/07/21 05:29:54;;;;;;;;;;;;;;;;;;4901159;29;20602;-83
2023/07/21 05:32:22;;;;;;;;;;;;;;;;;;4894423;29;20327;-83
2023/07/21 05:34:58;;;;;;;;;;;;;;;;;;4896439;29;19923;-82
2023/07/21 05:37:26;;;;;;;;;;;;;;;;;;4905215;29;19923;-83
2023/07/21 05:39:59;;;;;;;;;;;;;;;;;;4913589;29;19938;-83
2023/07/21 05:42:26;;;;;;;;;;;;;;;;;;4914293;29;19923;-82
2023/07/21 05:44:57;;;;;;;;;;;;;;;;;;4898522;29;19927;-83
2023/07/21 05:47:30;;;;;;;;;;;;;;;;;;4896563;29;20321;-83
2023/07/21 05:50:01;;;;;;;;;;;;;;;;;;4912829;29;19931;-83
2023/07/21 05:52:30;;;;;;;;;;;;;;;;;;4913504;29;20371;-83
2023/07/21 05:55:03;;;;;;;;;;;;;;;;;;4898343;29;20299;-82
2023/07/21 05:57:32;;;;;;;;;;;;;;;;;;4905056;29;19923;-83
2023/07/21 06:00:00;;;;;;;;;;;;;;;;;;4912650;29;20314;-82
2023/07/21 06:02:28;;;;;;;;;;;;;;;;;;4911944;29;19923;-83
2023/07/21 06:04:58;;;;;;;;;;;;;;;;;;4894243;29;20626;-82
2023/07/21 06:07:40;;;;;;;;;;;;;;;;;;4912571;29;19923;-83
2023/07/21 06:10:21;;;;;;;;;;;;;;;;;;4913251;29;19930;-83
2023/07/21 06:13:00;;;;;;;;;;;;;;;;;;4911029;29;19923;-83
2023/07/21 06:15:51;;;;;;;;;;;;;;;;;;4918181;29;19934;-83
2023/07/21 06:18:35;;;;;;;;;;;;;;;;;;4892260;29;19934;-82
2023/07/21 06:21:08;;;;;;;;;;;;;;;;;;4913095;29;19923;-82
2023/07/21 06:23:35;;;;;;;;;;;;;;;;;;4912629;29;19996;-81
2023/07/21 06:26:10;;;;;;;;;;;;;;;;;;4913359;29;20275;-83
2023/07/21 06:28:38;;;;;;;;;;;;;;;;;;4903782;29;19930;-82
2023/07/21 06:31:13;;;;;;;;;;;;;;;;;;4912014;29;19927;-83
2023/07/21 06:33:48;;;;;;;;;;;;;;;;;;4911290;29;20299;-83
2023/07/21 06:36:37;;;;;;;;;;;;;;;;;;4912749;29;19923;-84
2023/07/21 06:39:14;;;;;;;;;;;;;;;;;;4910803;29;20423;-78
2023/07/21 06:42:07;;;;;;;;;;;;;;;;;;4913080;29;19930;-78
2023/07/21 06:44:58;;;;;;;;;;;;;;;;;;4891524;29;19923;-80
2023/07/21 06:47:48;;;;;;;;;;;;;;;;;;4909801;29;19931;-78
2023/07/21 06:50:38;;;;;;;;;;;;;;;;;;4894795;29;19923;-78
2023/07/21 06:53:06;;;;;;;;;;;;;;;;;;4892327;29;19923;-79
2023/07/21 06:55:34;;;;;;;;;;;;;;;;;;4913331;29;19943;-80
2023/07/21 06:58:01;;;;;;;;;;;;;;;;;;4913580;29;19974;-80
2023/07/21 07:00:29;;;;;;;;;;;;;;;;;;4892385;29;19938;-82
2023/07/21 07:02:57;;;;;;;;;;;;;;;;;;4905280;29;20576;-80
2023/07/21 07:05:25;;;;;;;;;;;;;;;;;;4911107;29;19934;-81
2023/07/21 07:07:55;;;;;;;;;;;;;;;;;;4912251;29;19978;-81
2023/07/21 07:10:28;;;;;;;;;;;;;;;;;;4888799;29;19923;-80
2023/07/21 07:12:56;;;;;;;;;;;;;;;;;;4914496;29;19930;-80
2023/07/21 07:15:23;;;;;;;;;;;;;;;;;;4912178;29;20395;-80
2023/07/21 07:17:51;;;;;;;;;;;;;;;;;;4908354;29;19923;-80
2023/07/21 07:20:19;;;;;;;;;;;;;;;;;;4908151;29;19923;-80
2023/07/21 07:22:48;;;;;;;;;;;;;;;;;;4900639;29;19946;-81
2023/07/21 07:25:16;;;;;;;;;;;;;;;;;;4912891;29;19927;-80
2023/07/21 07:27:43;;;;;;;;;;;;;;;;;;4912216;29;19927;-79
2023/07/21 07:30:11;;;;;;;;;;;;;;;;;;4907645;29;19938;-80
2023/07/21 07:32:39;;;;;;;;;;;;;;;;;;4886362;29;19930;-79
2023/07/21 07:35:06;;;;;;;;;;;;;;;;;;4882496;29;19931;-80
2023/07/21 07:37:34;;;;;;;;;;;;;;;;;;4883426;29;20295;-79
2023/07/21 07:40:05;;;;;;;;;;;;;;;;;;4886434;29;20297;-79
2023/07/21 07:42:32;;;;;;;;;;;;;;;;;;4888911;29;19931;-80
2023/07/21 07:45:00;;;;;;;;;;;;;;;;;;4890133;29;19934;-79
2023/07/21 07:47:29;;;;;;;;;;;;;;;;;;4883161;29;20306;-79
2023/07/21 07:49:56;;;;;;;;;;;;;;;;;;4872725;29;20595;-81
2023/07/21 07:52:29;;;;;;;;;;;;;;;;;;4876524;29;19931;-79
2023/07/21 07:54:56;;;;;;;;;;;;;;;;;;4867984;29;20610;-79
2023/07/21 07:57:24;;;;;;;;;;;;;;;;;;4885333;29;19931;-79
2023/07/21 07:59:52;;;;;;;;;;;;;;;;;;4868652;29;19931;-80
2023/07/21 08:02:19;;;;;;;;;;;;;;;;;;4883593;29;19931;-79
2023/07/21 08:04:47;;;;;;;;;;;;;;;;;;4879335;29;19930;-79
2023/07/21 08:07:19;;;;;;;;;;;;;;;;;;4881958;29;19950;-79
2023/07/21 08:09:52;;;;;;;;;;;;;;;;;;4887102;29;19934;-80
2023/07/21 08:12:20;;;;;;;;;;;;;;;;;;4870586;29;19931;-80
2023/07/21 08:14:52;;;;;;;;;;;;;;;;;;4887637;29;19942;-81
2023/07/21 08:17:20;;;;;;;;;;;;;;;;;;4874518;29;19931;-81
2023/07/21 08:19:48;;;;;;;;;;;;;;;;;;4879589;29;19942;-79
2023/07/21 08:22:16;;;;;;;;;;;;;;;;;;4884173;29;19938;-81
2023/07/21 08:24:48;;;;;;;;;;;;;;;;;;4885162;29;20012;-82
2023/07/21 08:27:16;;;;;;;;;;;;;;;;;;4887131;29;19927;-80
2023/07/21 08:29:48;;;;;;;;;;;;;;;;;;4890579;29;19931;-79
2023/07/21 08:32:16;;;;;;;;;;;;;;;;;;4888714;29;19963;-80
2023/07/21 08:34:44;;;;;;;;;;;;;;;;;;4884660;29;20300;-79
2023/07/21 08:37:11;;;;;;;;;;;;;;;;;;4879097;29;20009;-80
2023/07/21 08:39:44;;;;;;;;;;;;;;;;;;4882317;29;19930;-84
2023/07/21 08:42:12;;;;;;;;;;;;;;;;;;4883599;29;21090;-81
2023/07/21 08:44:39;;;;;;;;;;;;;;;;;;4871729;29;19931;-80
2023/07/21 08:47:12;;;;;;;;;;;;;;;;;;4876705;29;19938;-79
2023/07/21 08:49:44;;;;;;;;;;;;;;;;;;4888058;29;19931;-80
2023/07/21 08:52:12;;;;;;;;;;;;;;;;;;4882383;29;19938;-79
2023/07/21 08:54:44;;;;;;;;;;;;;;;;;;4882838;29;20000;-80
2023/07/21 08:57:17;;;;;;;;;;;;;;;;;;4878230;29;19931;-80
2023/07/21 08:59:44;;;;;;;;;;;;;;;;;;4879750;29;19931;-79
2023/07/21 09:02:12;;;;;;;;;;;;;;;;;;4882988;29;20367;-79
2023/07/21 09:04:40;;;;;;;;;;;;;;;;;;4879461;29;19938;-80
2023/07/21 09:07:07;;;;;;;;;;;;;;;;;;4875704;29;20327;-79
2023/07/21 09:09:35;;;;;;;;;;;;;;;;;;4879494;29;20423;-79
2023/07/21 09:12:03;;;;;;;;;;;;;;;;;;4877644;29;20847;-78
2023/07/21 09:14:33;;;;;;;;;;;;;;;;;;4879218;29;20354;-80
2023/07/21 09:17:05;;;;;;;;;;;;;;;;;;4879846;29;20701;-79
2023/07/21 09:19:38;;;;;;;;;;;;;;;;;;4867571;29;20489;-79
2023/07/21 09:22:06;;;;;;;;;;;;;;;;;;4878038;29;19938;-80
2023/07/21 09:24:34;;;;;;;;;;;;;;;;;;4884940;29;19931;-80
2023/07/21 09:27:06;;;;;;;;;;;;;;;;;;4888323;29;19931;-81
2023/07/21 09:29:34;;;;;;;;;;;;;;;;;;4884633;29;19942;-79
2023/07/21 09:32:02;;;;;;;;;;;;;;;;;;4880656;29;20657;-79
2023/07/21 09:34:35;;;;;;;;;;;;;;;;;;4884002;29;19935;-83
2023/07/21 09:37:03;;;;;;;;;;;;;;;;;;4890273;29;19931;-82
2023/07/21 09:39:35;;;;;;;;;;;;;;;;;;4886283;29;20540;-79
2023/07/21 09:42:03;;;;;;;;;;;;;;;;;;4888213;29;19934;-79
2023/07/21 09:44:34;;;;;;;;;;;;;;;;;;4890015;29;19931;-80
2023/07/21 09:47:06;;;;;;;;;;;;;;;;;;4886252;29;20028;-80
2023/07/21 09:49:34;;;;;;;;;;;;;;;;;;4887060;29;19935;-80
2023/07/21 09:52:01;;;;;;;;;;;;;;;;;;4882729;29;19943;-81
2023/07/21 09:54:34;;;;;;;;;;;;;;;;;;4883425;29;19935;-80
2023/07/21 09:57:02;;;;;;;;;;;;;;;;;;4891205;29;19954;-79
2023/07/21 09:59:29;;;;;;;;;;;;;;;;;;4881541;29;19935;-80
2023/07/21 10:02:02;;;;;;;;;;;;;;;;;;4888008;29;19935;-80
2023/07/21 10:04:34;;;;;;;;;;;;;;;;;;4881772;29;19935;-80
2023/07/21 10:07:03;;;;;;;;;;;;;;;;;;4882746;29;19935;-80
2023/07/21 10:09:31;;;;;;;;;;;;;;;;;;4884211;29;19935;-79
2023/07/21 10:12:00;;;;;;;;;;;;;;;;;;4882847;29;19936;-80
2023/07/21 10:14:32;;;;;;;;;;;;;;;;;;4882856;29;19935;-81
2023/07/21 10:17:00;;;;;;;;;;;;;;;;;;4872052;29;19969;-80
2023/07/21 10:19:33;;;;;;;;;;;;;;;;;;4890172;29;19935;-81
2023/07/21 10:22:01;;;;;;;;;;;;;;;;;;4885146;29;19935;-81
2023/07/21 10:24:34;;;;;;;;;;;;;;;;;;4887432;29;19938;-80
2023/07/21 10:27:06;;;;;;;;;;;;;;;;;;4887302;29;19946;-81
2023/07/21 10:29:34;;;;;;;;;;;;;;;;;;4885393;29;19935;-80
2023/07/21 10:32:01;;;;;;;;;;;;;;;;;;4893582;29;19942;-79
2023/07/21 10:34:29;;;;;;;;;;;;;;;;;;4880612;29;20497;-81
2023/07/21 10:36:57;;;;;;;;;;;;;;;;;;4881246;29;19942;-81
2023/07/21 10:39:24;;;;;;;;;;;;;;;;;;4889877;29;19935;-80
2023/07/21 10:41:57;;;;;;;;;;;;;;;;;;4886398;29;19935;-79
2023/07/21 10:44:30;;;;;;;;;;;;;;;;;;4883899;29;19935;-80
2023/07/21 10:46:57;;;;;;;;;;;;;;;;;;4887905;29;19935;-82
2023/07/21 10:49:25;;;;;;;;;;;;;;;;;;4889592;29;19942;-80
2023/07/21 10:51:58;;;;;;;;;;;;;;;;;;4882507;29;19935;-82
2023/07/21 10:54:25;;;;;;;;;;;;;;;;;;4885611;29;19935;-80
2023/07/21 10:56:53;;;;;;;;;;;;;;;;;;4881382;29;20368;-82
2023/07/21 10:59:25;;;;;;;;;;;;;;;;;;4868577;29;19935;-79
2023/07/21 11:01:53;;;;;;;;;;;;;;;;;;4886492;29;19942;-81
2023/07/21 11:04:21;;;;;;;;;;;;;;;;;;4907158;29;19934;-82
2023/07/21 11:06:54;;;;;;;;;;;;;;;;;;4911360;29;20372;-82
2023/07/21 11:09:21;;;;;;;;;;;;;;;;;;4911030;29;19931;-81
2023/07/21 11:11:49;;;;;;;;;;;;;;;;;;4907362;29;19942;-82
2023/07/21 11:14:17;;;;;;;;;;;;;;;;;;4913570;29;19935;-82
2023/07/21 11:16:50;;;;;;;;;;;;;;;;;;4911135;29;19928;-83
2023/07/21 11:19:17;;;;;;;;;;;;;;;;;;4914198;29;19943;-80
2023/07/21 11:21:46;;;;;;;;;;;;;;;;;;4914317;29;19931;-81
2023/07/21 11:24:13;;;;;;;;;;;;;;;;;;4914390;29;19935;-79
2023/07/21 11:26:41;;;;;;;;;;;;;;;;;;4911510;29;20307;-80
2023/07/21 11:29:09;;;;;;;;;;;;;;;;;;4894484;29;19931;-80
2023/07/21 11:31:37;;;;;;;;;;;;;;;;;;4913002;29;19943;-80
2023/07/21 11:34:09;;;;;;;;;;;;;;;;;;4913570;29;19934;-82
2023/07/21 11:36:42;;;;;;;;;;;;;;;;;;4913577;29;19938;-81
2023/07/21 11:39:11;;;;;;;;;;;;;;;;;;4913563;29;19927;-81
2023/07/21 11:41:44;;;;;;;;;;;;;;;;;;4915256;29;19931;-81
2023/07/21 11:44:16;;;;;;;;;;;;;;;;;;4896006;29;21519;-80
2023/07/21 11:46:49;;;;;;;;;;;;;;;;;;4897534;29;20402;-80
2023/07/21 11:49:16;;;;;;;;;;;;;;;;;;4913045;29;19931;-79
2023/07/21 11:51:49;;;;;;;;;;;;;;;;;;4910952;29;19938;-82
2023/07/21 11:54:21;;;;;;;;;;;;;;;;;;4911059;29;19935;-82
2023/07/21 11:56:54;;;;;;;;;;;;;;;;;;4913422;29;20295;-82
2023/07/21 11:59:22;;;;;;;;;;;;;;;;;;4913725;29;20435;-81
2023/07/21 12:01:49;;;;;;;;;;;;;;;;;;4913494;29;20020;-81
2023/07/21 12:04:22;;;;;;;;;;;;;;;;;;4909281;29;19931;-82
2023/07/21 12:06:54;;;;;;;;;;;;;;;;;;4912037;29;19931;-80
2023/07/21 12:09:27;;;;;;;;;;;;;;;;;;4909852;29;19935;-80
2023/07/21 12:11:55;;;;;;;;;;;;;;;;;;4913842;29;19938;-82
2023/07/21 12:14:23;;;;;;;;;;;;;;;;;;4914422;29;20415;-81
2023/07/21 12:16:53;;;;;;;;;;;;;;;;;;4913456;29;19927;-82
2023/07/21 12:19:26;;;;;;;;;;;;;;;;;;4912536;29;19927;-80
2023/07/21 12:21:53;;;;;;;;;;;;;;;;;;4905431;29;19927;-81
2023/07/21 12:24:21;;;;;;;;;;;;;;;;;;4907341;29;19935;-81
2023/07/21 12:26:54;;;;;;;;;;;;;;;;;;4910119;29;19931;-80
2023/07/21 12:29:26;;;;;;;;;;;;;;;;;;4908697;29;19927;-82
2023/07/21 12:31:54;;;;;;;;;;;;;;;;;;4913302;29;19953;-81
2023/07/21 12:34:22;;;;;;;;;;;;;;;;;;4914677;29;19950;-81
2023/07/21 12:36:49;;;;;;;;;;;;;;;;;;4899483;29;20408;-80
2023/07/21 12:39:17;;;;;;;;;;;;;;;;;;4888877;29;19942;-80
2023/07/21 12:41:45;;;;;;;;;;;;;;;;;;4891305;29;19942;-79
2023/07/21 12:44:12;;;;;;;;;;;;;;;;;;4878424;29;19942;-80
2023/07/21 12:46:40;;;;;;;;;;;;;;;;;;4879988;29;20500;-80
2023/07/21 12:49:07;;;;;;;;;;;;;;;;;;4882647;29;19931;-79
2023/07/21 12:51:35;;;;;;;;;;;;;;;;;;4884897;29;19942;-81
2023/07/21 12:54:08;;;;;;;;;;;;;;;;;;4885442;29;20520;-82
2023/07/21 12:56:35;;;;;;;;;;;;;;;;;;4879260;29;19928;-80
2023/07/21 12:59:08;;;;;;;;;;;;;;;;;;4879041;29;19936;-79
2023/07/21 13:01:36;;;;;;;;;;;;;;;;;;4880644;29;19935;-79
2023/07/21 13:04:04;;;;;;;;;;;;;;;;;;4875212;29;19927;-80
2023/07/21 13:06:31;;;;;;;;;;;;;;;;;;4878754;29;20320;-80
2023/07/21 13:08:59;;;;;;;;;;;;;;;;;;4882334;29;19942;-79
2023/07/21 13:11:27;;;;;;;;;;;;;;;;;;4880121;29;19942;-80
2023/07/21 13:13:55;;;;;;;;;;;;;;;;;;4880090;29;19957;-80
2023/07/21 13:16:23;;;;;;;;;;;;;;;;;;4876116;29;20428;-80
2023/07/21 13:18:56;;;;;;;;;;;;;;;;;;4883100;29;19935;-79
2023/07/21 13:21:23;;;;;;;;;;;;;;;;;;4878199;29;20614;-80
2023/07/21 13:23:51;;;;;;;;;;;;;;;;;;4881715;29;20168;-80
2023/07/21 13:26:23;;;;;;;;;;;;;;;;;;4879665;29;19939;-81
2023/07/21 13:28:51;;;;;;;;;;;;;;;;;;4873037;29;19935;-79
2023/07/21 13:31:19;;;;;;;;;;;;;;;;;;4887702;29;20246;-81
2023/07/21 13:33:51;;;;;;;;;;;;;;;;;;4886647;29;19930;-81
2023/07/21 13:36:19;;;;;;;;;;;;;;;;;;4886893;29;19935;-80
2023/07/21 13:38:48;;;;;;;;;;;;;;;;;;4880939;29;19935;-81
2023/07/21 13:41:16;;;;;;;;;;;;;;;;;;4882703;29;19935;-81
2023/07/21 13:43:48;;;;;;;;;;;;;;;;;;4885971;29;19942;-81
2023/07/21 13:46:16;;;;;;;;;;;;;;;;;;4888796;29;20372;-81
2023/07/21 13:48:43;;;;;;;;;;;;;;;;;;4887513;29;19934;-79
2023/07/21 13:51:11;;;;;;;;;;;;;;;;;;4887653;29;20637;-81
2023/07/21 13:53:39;;;;;;;;;;;;;;;;;;4884616;29;19946;-80
2023/07/21 13:56:06;;;;;;;;;;;;;;;;;;4886152;29;19935;-79
2023/07/21 13:58:39;;;;;;;;;;;;;;;;;;4877216;29;19935;-80
2023/07/21 14:01:06;;;;;;;;;;;;;;;;;;4894382;29;19935;-81
2023/07/21 14:03:34;;;;;;;;;;;;;;;;;;4880087;29;19935;-80
2023/07/21 14:06:02;;;;;;;;;;;;;;;;;;4890459;29;19942;-82
2023/07/21 14:08:30;;;;;;;;;;;;;;;;;;4891810;29;19943;-79
2023/07/21 14:10:57;;;;;;;;;;;;;;;;;;4882864;29;19935;-79
2023/07/21 14:13:30;;;;;;;;;;;;;;;;;;4883447;29;19935;-80
2023/07/21 14:15:58;;;;;;;;;;;;;;;;;;4885640;29;19939;-84
2023/07/21 14:18:25;;;;;;;;;;;;;;;;;;4888122;29;19942;-79
2023/07/21 14:20:53;;;;;;;;;;;;;;;;;;4893764;29;20670;-84
2023/07/21 14:23:26;;;;;;;;;;;;;;;;;;4883741;29;20837;-84
2023/07/21 14:25:54;;;;;;;;;;;;;;;;;;4898088;29;20384;-80
2023/07/21 14:28:22;;;;;;;;;;;;;;;;;;4889012;29;19942;-81
2023/07/21 14:30:49;;;;;;;;;;;;;;;;;;4888590;29;19935;-78
2023/07/21 14:33:17;;;;;;;;;;;;;;;;;;4886259;29;19970;-84
2023/07/21 14:35:44;;;;;;;;;;;;;;;;;;4886648;29;19942;-79
2023/07/21 14:38:12;;;;;;;;;;;;;;;;;;4867552;29;19935;-80
2023/07/21 14:40:45;;;;;;;;;;;;;;;;;;4888018;29;19942;-82
2023/07/21 14:43:18;;;;;;;;;;;;;;;;;;4887231;29;19935;-82
2023/07/21 14:45:49;;;;;;;;;;;;;;;;;;4889456;29;19931;-82
2023/07/21 14:48:17;;;;;;;;;;;;;;;;;;4890809;29;19942;-81
2023/07/21 14:50:44;;;;;;;;;;;;;;;;;;4887750;29;19943;-81
2023/07/21 14:53:17;;;;;;;;;;;;;;;;;;4889006;29;19935;-82
2023/07/21 14:55:50;;;;;;;;;;;;;;;;;;4891738;29;19935;-82
2023/07/21 14:58:18;;;;;;;;;;;;;;;;;;4888089;29;20577;-81
2023/07/21 15:00:45;;;;;;;;;;;;;;;;;;4887716;29;19942;-80
2023/07/21 15:03:18;;;;;;;;;;;;;;;;;;4875828;29;19942;-80
2023/07/21 15:05:45;;;;;;;;;;;;;;;;;;4881745;29;19935;-80
2023/07/21 15:08:13;;;;;;;;;;;;;;;;;;4889627;29;19927;-82
2023/07/21 15:10:41;;;;;;;;;;;;;;;;;;4893516;29;19935;-80
2023/07/21 15:13:08;;;;;;;;;;;;;;;;;;4889248;29;19942;-83
2023/07/21 15:15:41;;;;;;;;;;;;;;;;;;4886072;29;19946;-81
2023/07/21 15:18:13;;;;;;;;;;;;;;;;;;4879570;29;19943;-82
2023/07/21 15:20:41;;;;;;;;;;;;;;;;;;4884422;29;19935;-83
2023/07/21 15:23:09;;;;;;;;;;;;;;;;;;4891144;29;19935;-80
2023/07/21 15:25:36;;;;;;;;;;;;;;;;;;4886617;29;20407;-80
2023/07/21 15:28:04;;;;;;;;;;;;;;;;;;4883144;29;19935;-83
2023/07/21 15:30:32;;;;;;;;;;;;;;;;;;4886880;29;20754;-82
2023/07/21 15:33:04;;;;;;;;;;;;;;;;;;4888619;29;19946;-79
2023/07/21 15:35:37;;;;;;;;;;;;;;;;;;4883749;29;19942;-80
2023/07/21 15:38:04;;;;;;;;;;;;;;;;;;4857074;29;20607;-79
2023/07/21 15:40:33;;;;;;;;;;;;;;;;;;4891696;29;19943;-83
2023/07/21 15:43:05;;;;;;;;;;;;;;;;;;4885338;29;21434;-81
2023/07/21 15:45:33;;;;;;;;;;;;;;;;;;4883513;29;19946;-81
2023/07/21 15:48:01;;;;;;;;;;;;;;;;;;4885221;29;19935;-82
2023/07/21 15:50:28;;;;;;;;;;;;;;;;;;4896752;29;20770;-80
2023/07/21 15:53:01;;;;;;;;;;;;;;;;;;4888234;29;19935;-80
2023/07/21 15:55:28;;;;;;;;;;;;;;;;;;4876472;29;20028;-82
2023/07/21 15:58:01;;;;;;;;;;;;;;;;;;4880414;29;19935;-79
2023/07/21 16:00:33;;;;;;;;;;;;;;;;;;4874049;29;19935;-79
2023/07/21 16:03:01;;;;;;;;;;;;;;;;;;4872453;29;20493;-79
2023/07/21 16:05:28;;;;;;;;;;;;;;;;;;4891839;29;19935;-81
2023/07/21 16:07:57;;;;;;;;;;;;;;;;;;4878619;29;19935;-81
2023/07/21 16:10:25;;;;;;;;;;;;;;;;;;4884796;29;19938;-79
2023/07/21 16:12:53;;;;;;;;;;;;;;;;;;4888742;29;19946;-80
2023/07/21 16:15:21;;;;;;;;;;;;;;;;;;4876239;29;19942;-81
2023/07/21 16:17:49;;;;;;;;;;;;;;;;;;4883333;29;19941;-79
2023/07/21 16:20:17;;;;;;;;;;;;;;;;;;4883961;29;19942;-78
2023/07/21 16:22:44;;;;;;;;;;;;;;;;;;4879103;29;19935;-79
2023/07/21 16:25:12;;;;;;;;;;;;;;;;;;4883645;29;19944;-80
2023/07/21 16:27:44;;;;;;;;;;;;;;;;;;4874744;29;19946;-79
2023/07/21 16:30:12;;;;;;;;;;;;;;;;;;4882885;29;20323;-79
2023/07/21 16:32:44;;;;;;;;;;;;;;;;;;4881493;29;19935;-79
2023/07/21 16:35:13;;;;;;;;;;;;;;;;;;4876073;29;19935;-78
2023/07/21 16:37:45;;;;;;;;;;;;;;;;;;4866290;29;19942;-80
2023/07/21 16:40:20;;;;;;;;;;;;;;;;;;4882848;29;19935;-79
2023/07/21 16:42:48;;;;;;;;;;;;;;;;;;4888242;29;19942;-82
2023/07/21 16:45:15;;;;;;;;;;;;;;;;;;4889261;29;19935;-78
2023/07/21 16:47:43;;;;;;;;;;;;;;;;;;4891203;29;19934;-80
2023/07/21 16:50:16;;;;;;;;;;;;;;;;;;4886135;29;19950;-80
2023/07/21 16:52:43;;;;;;;;;;;;;;;;;;4882657;29;19935;-80
2023/07/21 16:55:11;;;;;;;;;;;;;;;;;;4882572;29;19927;-78
2023/07/21 16:57:44;;;;;;;;;;;;;;;;;;4872255;29;20577;-79
2023/07/21 17:00:13;;;;;;;;;;;;;;;;;;4881635;29;19935;-80
2023/07/21 17:02:53;;;;;;;;;;;;;;;;;;4881981;29;21155;-80
2023/07/21 17:05:27;;;;;;;;;;;;;;;;;;4884709;29;21054;-76